KMIB/MIB METAR and TAF weather

Enter ICAO airport designator
Station Type Date Time Source
KMIB METAR 2023/02/05 13:54 UTC NOAA

KMIB 051354Z 27007KT 10SM CLR M09/M11 A2989 RMK AO2A SLP155 T10911106 $


Station Type Date Time Source
KMIB Decoded METAR 2023/02/05 13:54 UTC NOAA

Minot Air Force Base, ND, United States (KMIB) 48-25N 101-21W
Feb 05, 2023 - 08:54 AM EST / 2023.02.05 1354 UTC
Wind: from the W (270 degrees) at 8 MPH (7 KT):0
Visibility: 10 mile(s):0
Sky conditions: clear
Temperature: 15.6 F (-9.1 C)
Windchill: 5 F (-15 C):1
Dew Point: 12.9 F (-10.6 C)
Relative Humidity: 88%
Pressure (altimeter): 29.89 in. Hg (1012 hPa)
ob: KMIB 051354Z 27007KT 10SM CLR M09/M11 A2989 RMK AO2A SLP155 T10911106
cycle: 14

Station Type Date Time Source
KMIB TAF 2023/02/03 17:03 UTC NOAA

TAF KMIB 031700Z 0317/0423 18009KT 9999 SCT005 BKN015 620151 QNH2989INS
BECMG 0318/0319 25012KT 9999 SCT015 QNH2971INS
BECMG 0404/0405 25010G20KT 9999 FEW110 QNH2961INS
BECMG 0422/0423 25010G20KT 9999 BKN020 620209 QNH2965INS TX01/0415Z TNM13/0317Z LAST NO
AMDS AFT 0400 NEXT 0609

Example: see airport list